sensor_id;sensor_type;location;lat;lon;timestamp;pressure;altitude;pressure_sealevel;temperature;humidity
38253;BME280;24785;52.372;20.672;2023-05-10T00:05:03;101368.41;;;3.29;93.36
38253;BME280;24785;52.372;20.672;2023-05-10T00:15:05;101364.75;;;3.17;95.40
38253;BME280;24785;52.372;20.672;2023-05-10T00:25:06;101356.22;;;3.35;92.10
38253;BME280;24785;52.372;20.672;2023-05-10T00:35:08;101349.09;;;3.35;89.89
38253;BME280;24785;52.372;20.672;2023-05-10T00:45:09;101343.19;;;3.40;89.33
38253;BME280;24785;52.372;20.672;2023-05-10T00:55:11;101347.88;;;3.31;89.89
38253;BME280;24785;52.372;20.672;2023-05-10T01:05:13;101348.03;;;3.30;90.40
38253;BME280;24785;52.372;20.672;2023-05-10T01:15:14;101344.81;;;3.41;89.72
38253;BME280;24785;52.372;20.672;2023-05-10T01:45:58;101338.06;;;3.12;91.58
38253;BME280;24785;52.372;20.672;2023-05-10T01:56:02;101320.53;;;2.98;93.11
38253;BME280;24785;52.372;20.672;2023-05-10T02:06:05;101313.59;;;3.03;92.67
38253;BME280;24785;52.372;20.672;2023-05-10T02:16:07;101320.31;;;2.93;93.90
38253;BME280;24785;52.372;20.672;2023-05-10T02:26:08;101307.47;;;2.90;94.58
38253;BME280;24785;52.372;20.672;2023-05-10T02:36:10;101312.16;;;2.88;93.70
38253;BME280;24785;52.372;20.672;2023-05-10T02:46:11;101317.41;;;2.74;93.35
38253;BME280;24785;52.372;20.672;2023-05-10T02:56:22;101317.66;;;2.86;92.77
38253;BME280;24785;52.372;20.672;2023-05-10T03:06:25;101314.81;;;2.88;91.27
38253;BME280;24785;52.372;20.672;2023-05-10T03:16:30;101318.09;;;3.03;90.05
38253;BME280;24785;52.372;20.672;2023-05-10T03:26:33;101316.09;;;3.31;88.68
38253;BME280;24785;52.372;20.672;2023-05-10T03:36:34;101316.00;;;3.97;85.34
38253;BME280;24785;52.372;20.672;2023-05-10T03:46:35;101297.38;;;6.11;75.82
38253;BME280;24785;52.372;20.672;2023-05-10T03:56:36;101289.72;;;7.70;68.16
38253;BME280;24785;52.372;20.672;2023-05-10T04:06:37;101288.59;;;8.86;63.34
38253;BME280;24785;52.372;20.672;2023-05-10T04:16:38;101283.84;;;9.94;59.48
38253;BME280;24785;52.372;20.672;2023-05-10T04:26:39;101291.97;;;10.43;58.78
38253;BME280;24785;52.372;20.672;2023-05-10T04:36:40;101297.25;;;11.87;56.27
38253;BME280;24785;52.372;20.672;2023-05-10T04:46:41;101293.63;;;12.19;55.00
38253;BME280;24785;52.372;20.672;2023-05-10T04:56:41;101290.31;;;12.95;53.84
38253;BME280;24785;52.372;20.672;2023-05-10T05:06:42;101269.47;;;14.66;46.35
38253;BME280;24785;52.372;20.672;2023-05-10T05:16:43;101260.00;;;14.09;46.84
38253;BME280;24785;52.372;20.672;2023-05-10T05:26:44;101266.66;;;13.42;48.09
38253;BME280;24785;52.372;20.672;2023-05-10T05:36:45;101268.84;;;13.30;47.92
38253;BME280;24785;52.372;20.672;2023-05-10T05:46:46;101267.72;;;13.57;48.68
38253;BME280;24785;52.372;20.672;2023-05-10T05:56:46;101264.22;;;13.46;48.11
38253;BME280;24785;52.372;20.672;2023-05-10T06:06:47;101268.28;;;13.33;46.25
38253;BME280;24785;52.372;20.672;2023-05-10T06:16:48;101273.66;;;13.23;47.56
38253;BME280;24785;52.372;20.672;2023-05-10T06:26:49;101273.66;;;13.43;47.53
38253;BME280;24785;52.372;20.672;2023-05-10T06:36:51;101264.47;;;13.54;47.22
38253;BME280;24785;52.372;20.672;2023-05-10T06:46:52;101261.22;;;13.63;45.67
38253;BME280;24785;52.372;20.672;2023-05-10T06:56:54;101250.13;;;13.84;44.59
38253;BME280;24785;52.372;20.672;2023-05-10T07:06:56;101260.03;;;14.04;44.32
38253;BME280;24785;52.372;20.672;2023-05-10T07:16:57;101253.16;;;14.32;42.09
38253;BME280;24785;52.372;20.672;2023-05-10T07:26:58;101244.53;;;14.35;42.49
38253;BME280;24785;52.372;20.672;2023-05-10T07:36:59;101252.16;;;14.72;41.80
38253;BME280;24785;52.372;20.672;2023-05-10T07:47:00;101224.75;;;14.89;38.39
38253;BME280;24785;52.372;20.672;2023-05-10T07:57:01;101233.22;;;14.77;36.95
38253;BME280;24785;52.372;20.672;2023-05-10T08:07:02;101231.63;;;15.34;40.13
38253;BME280;24785;52.372;20.672;2023-05-10T08:17:03;101224.69;;;15.28;38.50
38253;BME280;24785;52.372;20.672;2023-05-10T08:27:05;101222.22;;;15.61;36.35
38253;BME280;24785;52.372;20.672;2023-05-10T08:37:06;101217.63;;;15.61;36.18
38253;BME280;24785;52.372;20.672;2023-05-10T08:47:08;101221.00;;;15.72;37.37
38253;BME280;24785;52.372;20.672;2023-05-10T08:57:10;101215.53;;;15.77;36.53
38253;BME280;24785;52.372;20.672;2023-05-10T09:07:11;101210.78;;;16.12;35.94
38253;BME280;24785;52.372;20.672;2023-05-10T09:17:13;101191.91;;;16.06;35.11
38253;BME280;24785;52.372;20.672;2023-05-10T09:27:14;101198.66;;;16.28;36.39
38253;BME280;24785;52.372;20.672;2023-05-10T09:37:14;101192.50;;;16.41;36.48
38253;BME280;24785;52.372;20.672;2023-05-10T09:47:18;101189.34;;;16.53;34.85
38253;BME280;24785;52.372;20.672;2023-05-10T09:57:24;101184.47;;;16.74;35.57
38253;BME280;24785;52.372;20.672;2023-05-10T10:07:26;101173.28;;;16.24;34.02
38253;BME280;24785;52.372;20.672;2023-05-10T10:17:30;101162.00;;;16.54;35.30
38253;BME280;24785;52.372;20.672;2023-05-10T10:27:34;101167.94;;;16.89;36.82
38253;BME280;24785;52.372;20.672;2023-05-10T10:37:45;101154.38;;;17.49;35.27
38253;BME280;24785;52.372;20.672;2023-05-10T10:47:46;101150.88;;;17.62;34.81
38253;BME280;24785;52.372;20.672;2023-05-10T10:57:52;101138.84;;;17.68;35.96
38253;BME280;24785;52.372;20.672;2023-05-10T11:07:57;101119.91;;;16.81;31.82
38253;BME280;24785;52.372;20.672;2023-05-10T11:17:58;101118.13;;;16.90;36.23
38253;BME280;24785;52.372;20.672;2023-05-10T11:28:02;101097.19;;;17.09;34.02
38253;BME280;24785;52.372;20.672;2023-05-10T11:38:09;101105.09;;;16.92;32.71
38253;BME280;24785;52.372;20.672;2023-05-10T11:48:10;101094.06;;;17.29;34.42
38253;BME280;24785;52.372;20.672;2023-05-10T11:58:11;101099.56;;;17.79;33.15
38253;BME280;24785;52.372;20.672;2023-05-10T12:08:15;101088.03;;;16.91;32.71
38253;BME280;24785;52.372;20.672;2023-05-10T12:18:22;101100.25;;;18.66;34.41
38253;BME280;24785;52.372;20.672;2023-05-10T12:28:30;101099.31;;;18.48;32.31
38253;BME280;24785;52.372;20.672;2023-05-10T12:38:41;101089.63;;;18.33;35.01
38253;BME280;24785;52.372;20.672;2023-05-10T12:48:48;101089.16;;;18.84;34.75
38253;BME280;24785;52.372;20.672;2023-05-10T12:58:55;101081.28;;;19.14;33.76
38253;BME280;24785;52.372;20.672;2023-05-10T13:08:56;101065.38;;;18.37;32.57
38253;BME280;24785;52.372;20.672;2023-05-10T13:18:58;101067.91;;;17.88;33.60
38253;BME280;24785;52.372;20.672;2023-05-10T13:28:59;101053.97;;;18.48;32.93
38253;BME280;24785;52.372;20.672;2023-05-10T13:38:59;101062.53;;;18.64;32.81
38253;BME280;24785;52.372;20.672;2023-05-10T13:49:03;101051.44;;;17.85;32.31
38253;BME280;24785;52.372;20.672;2023-05-10T13:59:04;101044.59;;;18.32;35.79
38253;BME280;24785;52.372;20.672;2023-05-10T14:09:05;101040.09;;;19.29;31.86
38253;BME280;24785;52.372;20.672;2023-05-10T14:19:06;101024.06;;;19.02;34.68
38253;BME280;24785;52.372;20.672;2023-05-10T14:29:07;101031.69;;;18.60;32.42
38253;BME280;24785;52.372;20.672;2023-05-10T14:39:08;101031.47;;;18.25;33.67
38253;BME280;24785;52.372;20.672;2023-05-10T14:49:10;101022.84;;;18.23;32.08
38253;BME280;24785;52.372;20.672;2023-05-10T14:59:11;101033.50;;;18.65;33.65
38253;BME280;24785;52.372;20.672;2023-05-10T15:09:12;101023.50;;;20.81;30.44
38253;BME280;24785;52.372;20.672;2023-05-10T15:19:13;101025.13;;;19.66;31.50
38253;BME280;24785;52.372;20.672;2023-05-10T15:29:14;101008.16;;;18.78;29.99
38253;BME280;24785;52.372;20.672;2023-05-10T15:39:20;101000.50;;;23.86;26.04
38253;BME280;24785;52.372;20.672;2023-05-10T15:49:21;100988.28;;;23.56;24.26
38253;BME280;24785;52.372;20.672;2023-05-10T15:59:22;100988.19;;;21.23;26.85
38253;BME280;24785;52.372;20.672;2023-05-10T16:09:23;101002.41;;;20.05;29.76
38253;BME280;24785;52.372;20.672;2023-05-10T16:19:25;101003.75;;;18.60;30.04
38253;BME280;24785;52.372;20.672;2023-05-10T16:29:26;101010.41;;;18.53;32.74
38253;BME280;24785;52.372;20.672;2023-05-10T16:39:27;101014.66;;;17.20;33.20
38253;BME280;24785;52.372;20.672;2023-05-10T16:49:28;101025.09;;;17.13;34.60
38253;BME280;24785;52.372;20.672;2023-05-10T16:59:29;101039.31;;;17.19;33.82
38253;BME280;24785;52.372;20.672;2023-05-10T17:09:30;101048.00;;;16.61;34.22
38253;BME280;24785;52.372;20.672;2023-05-10T17:19:31;101058.91;;;16.04;35.62
38253;BME280;24785;52.372;20.672;2023-05-10T17:29:32;101063.78;;;15.46;34.99
38253;BME280;24785;52.372;20.672;2023-05-10T17:39:33;101070.13;;;14.89;36.11
38253;BME280;24785;52.372;20.672;2023-05-10T17:49:34;101081.75;;;14.26;35.91
38253;BME280;24785;52.372;20.672;2023-05-10T17:59:35;101080.25;;;13.66;36.57
38253;BME280;24785;52.372;20.672;2023-05-10T18:09:36;101099.00;;;13.11;37.56
38253;BME280;24785;52.372;20.672;2023-05-10T18:19:37;101109.56;;;12.72;38.48
38253;BME280;24785;52.372;20.672;2023-05-10T18:29:38;101116.84;;;12.31;39.66
38253;BME280;24785;52.372;20.672;2023-05-10T18:39:39;101133.44;;;11.92;41.01
38253;BME280;24785;52.372;20.672;2023-05-10T18:49:40;101139.44;;;11.52;42.06
38253;BME280;24785;52.372;20.672;2023-05-10T18:59:41;101154.03;;;11.24;43.49
38253;BME280;24785;52.372;20.672;2023-05-10T19:09:42;101154.19;;;11.02;43.62
38253;BME280;24785;52.372;20.672;2023-05-10T19:19:43;101161.63;;;10.90;44.00
38253;BME280;24785;52.372;20.672;2023-05-10T19:29:44;101160.84;;;10.63;44.97
38253;BME280;24785;52.372;20.672;2023-05-10T19:39:44;101154.44;;;10.37;45.73
38253;BME280;24785;52.372;20.672;2023-05-10T19:49:45;101164.59;;;10.08;46.68
38253;BME280;24785;52.372;20.672;2023-05-10T19:59:46;101176.50;;;9.95;46.84
38253;BME280;24785;52.372;20.672;2023-05-10T20:09:47;101181.19;;;9.61;48.01
38253;BME280;24785;52.372;20.672;2023-05-10T20:19:48;101188.59;;;9.37;49.60
38253;BME280;24785;52.372;20.672;2023-05-10T20:29:48;101208.75;;;8.90;51.52
38253;BME280;24785;52.372;20.672;2023-05-10T20:39:49;101205.09;;;8.34;54.08
38253;BME280;24785;52.372;20.672;2023-05-10T20:49:50;101216.59;;;7.94;55.71
38253;BME280;24785;52.372;20.672;2023-05-10T20:59:51;101213.88;;;7.54;57.51
38253;BME280;24785;52.372;20.672;2023-05-10T21:09:52;101218.53;;;7.23;59.42
38253;BME280;24785;52.372;20.672;2023-05-10T21:19:52;101228.13;;;7.01;60.16
38253;BME280;24785;52.372;20.672;2023-05-10T21:29:53;101230.94;;;7.18;58.67
38253;BME280;24785;52.372;20.672;2023-05-10T21:39:54;101227.31;;;7.47;57.30
38253;BME280;24785;52.372;20.672;2023-05-10T21:49:55;101233.78;;;7.86;54.80
38253;BME280;24785;52.372;20.672;2023-05-10T21:59:56;101230.09;;;8.56;52.75
38253;BME280;24785;52.372;20.672;2023-05-10T22:09:57;101241.13;;;8.93;51.46
38253;BME280;24785;52.372;20.672;2023-05-10T22:19:58;101230.44;;;9.27;49.99
38253;BME280;24785;52.372;20.672;2023-05-10T22:29:59;101231.03;;;9.67;47.76
38253;BME280;24785;52.372;20.672;2023-05-10T22:40:00;101239.81;;;9.85;47.26
38253;BME280;24785;52.372;20.672;2023-05-10T22:50:00;101243.59;;;9.89;46.81
38253;BME280;24785;52.372;20.672;2023-05-10T23:00:03;101255.25;;;9.77;46.97
38253;BME280;24785;52.372;20.672;2023-05-10T23:10:05;101247.84;;;9.85;46.39
38253;BME280;24785;52.372;20.672;2023-05-10T23:20:06;101252.19;;;9.69;46.83
38253;BME280;24785;52.372;20.672;2023-05-10T23:30:07;101254.41;;;9.55;46.79
38253;BME280;24785;52.372;20.672;2023-05-10T23:40:09;101260.50;;;9.51;47.15
38253;BME280;24785;52.372;20.672;2023-05-10T23:50:10;101258.31;;;9.31;47.39
